sensor_id;sensor_type;location;lat;lon;timestamp;P1;durP1;ratioP1;P2;durP2;ratioP2
54555;SDS011;57291;37.520;15.106;2022-10-16T00:01:29;32.45;;;17.33;;
54555;SDS011;57291;37.520;15.106;2022-10-16T00:03:58;38.47;;;18.40;;
54555;SDS011;57291;37.520;15.106;2022-10-16T00:06:26;28.65;;;16.08;;
54555;SDS011;57291;37.520;15.106;2022-10-16T00:08:54;27.10;;;15.27;;
54555;SDS011;57291;37.520;15.106;2022-10-16T00:11:23;25.25;;;13.20;;
54555;SDS011;57291;37.520;15.106;2022-10-16T00:13:54;21.33;;;11.27;;
54555;SDS011;57291;37.520;15.106;2022-10-16T00:16:23;18.33;;;10.75;;
54555;SDS011;57291;37.520;15.106;2022-10-16T00:18:51;16.05;;;9.98;;
54555;SDS011;57291;37.520;15.106;2022-10-16T00:21:19;16.33;;;9.35;;
54555;SDS011;57291;37.520;15.106;2022-10-16T00:23:55;14.07;;;9.07;;
54555;SDS011;57291;37.520;15.106;2022-10-16T00:26:35;12.93;;;9.30;;
54555;SDS011;57291;37.520;15.106;2022-10-16T00:29:03;15.70;;;9.93;;
54555;SDS011;57291;37.520;15.106;2022-10-16T00:31:31;17.45;;;9.27;;
54555;SDS011;57291;37.520;15.106;2022-10-16T00:33:58;17.10;;;9.52;;
54555;SDS011;57291;37.520;15.106;2022-10-16T00:36:27;15.88;;;9.23;;
54555;SDS011;57291;37.520;15.106;2022-10-16T00:38:54;15.30;;;9.73;;
54555;SDS011;57291;37.520;15.106;2022-10-16T00:41:24;16.00;;;9.50;;
54555;SDS011;57291;37.520;15.106;2022-10-16T00:44:01;17.58;;;9.70;;
54555;SDS011;57291;37.520;15.106;2022-10-16T00:46:40;15.27;;;8.90;;
54555;SDS011;57291;37.520;15.106;2022-10-16T00:49:13;15.30;;;8.75;;
54555;SDS011;57291;37.520;15.106;2022-10-16T00:52:00;15.75;;;9.20;;
54555;SDS011;57291;37.520;15.106;2022-10-16T00:54:29;15.20;;;8.82;;
54555;SDS011;57291;37.520;15.106;2022-10-16T00:56:58;17.30;;;9.25;;
54555;SDS011;57291;37.520;15.106;2022-10-16T00:59:29;14.18;;;8.88;;
54555;SDS011;57291;37.520;15.106;2022-10-16T01:01:59;14.93;;;8.85;;
54555;SDS011;57291;37.520;15.106;2022-10-16T01:04:26;13.32;;;9.40;;
54555;SDS011;57291;37.520;15.106;2022-10-16T01:12:27;16.15;;;9.43;;
54555;SDS011;57291;37.520;15.106;2022-10-16T01:15:12;18.95;;;10.20;;
54555;SDS011;57291;37.520;15.106;2022-10-16T01:20:40;16.70;;;10.10;;
54555;SDS011;57291;37.520;15.106;2022-10-16T01:28:54;14.05;;;9.13;;
54555;SDS011;57291;37.520;15.106;2022-10-16T01:31:30;19.02;;;10.35;;
54555;SDS011;57291;37.520;15.106;2022-10-16T01:34:05;20.10;;;11.07;;
54555;SDS011;57291;37.520;15.106;2022-10-16T01:36:43;19.73;;;11.82;;
54555;SDS011;57291;37.520;15.106;2022-10-16T01:39:16;17.10;;;11.30;;
54555;SDS011;57291;37.520;15.106;2022-10-16T01:41:54;23.98;;;12.60;;
54555;SDS011;57291;37.520;15.106;2022-10-16T01:44:28;15.13;;;9.43;;
54555;SDS011;57291;37.520;15.106;2022-10-16T01:46:57;14.55;;;9.95;;
54555;SDS011;57291;37.520;15.106;2022-10-16T01:49:29;16.10;;;9.75;;
54555;SDS011;57291;37.520;15.106;2022-10-16T01:51:59;14.98;;;9.30;;
54555;SDS011;57291;37.520;15.106;2022-10-16T01:54:30;18.33;;;10.13;;
54555;SDS011;57291;37.520;15.106;2022-10-16T01:57:00;15.60;;;9.63;;
54555;SDS011;57291;37.520;15.106;2022-10-16T01:59:30;21.40;;;9.35;;
54555;SDS011;57291;37.520;15.106;2022-10-16T02:02:00;15.88;;;8.70;;
54555;SDS011;57291;37.520;15.106;2022-10-16T02:04:39;19.80;;;10.60;;
54555;SDS011;57291;37.520;15.106;2022-10-16T02:07:10;13.30;;;9.60;;
54555;SDS011;57291;37.520;15.106;2022-10-16T02:09:38;15.32;;;9.65;;
54555;SDS011;57291;37.520;15.106;2022-10-16T02:12:08;15.68;;;9.45;;
54555;SDS011;57291;37.520;15.106;2022-10-16T02:14:40;15.30;;;9.13;;
54555;SDS011;57291;37.520;15.106;2022-10-16T02:17:15;15.43;;;9.60;;
54555;SDS011;57291;37.520;15.106;2022-10-16T02:19:44;14.85;;;8.65;;
54555;SDS011;57291;37.520;15.106;2022-10-16T02:25:25;15.85;;;9.15;;
54555;SDS011;57291;37.520;15.106;2022-10-16T02:28:08;13.85;;;8.40;;
54555;SDS011;57291;37.520;15.106;2022-10-16T02:30:49;15.55;;;9.50;;
54555;SDS011;57291;37.520;15.106;2022-10-16T02:33:21;14.43;;;8.52;;
54555;SDS011;57291;37.520;15.106;2022-10-16T02:35:51;14.57;;;8.30;;
54555;SDS011;57291;37.520;15.106;2022-10-16T02:38:21;12.02;;;8.20;;
54555;SDS011;57291;37.520;15.106;2022-10-16T02:40:49;14.98;;;8.88;;
54555;SDS011;57291;37.520;15.106;2022-10-16T02:43:17;22.48;;;10.13;;
54555;SDS011;57291;37.520;15.106;2022-10-16T02:45:45;13.35;;;8.40;;
54555;SDS011;57291;37.520;15.106;2022-10-16T02:48:12;16.98;;;9.18;;
54555;SDS011;57291;37.520;15.106;2022-10-16T02:50:39;13.80;;;8.10;;
54555;SDS011;57291;37.520;15.106;2022-10-16T02:53:06;14.30;;;8.20;;
54555;SDS011;57291;37.520;15.106;2022-10-16T02:55:33;15.27;;;8.45;;
54555;SDS011;57291;37.520;15.106;2022-10-16T02:58:00;16.38;;;8.70;;
54555;SDS011;57291;37.520;15.106;2022-10-16T03:00:27;14.57;;;7.93;;
54555;SDS011;57291;37.520;15.106;2022-10-16T03:02:55;12.68;;;8.02;;
54555;SDS011;57291;37.520;15.106;2022-10-16T03:05:22;15.50;;;8.80;;
54555;SDS011;57291;37.520;15.106;2022-10-16T03:07:49;13.05;;;8.18;;
54555;SDS011;57291;37.520;15.106;2022-10-16T03:10:16;15.80;;;8.38;;
54555;SDS011;57291;37.520;15.106;2022-10-16T03:12:44;15.50;;;8.38;;
54555;SDS011;57291;37.520;15.106;2022-10-16T03:15:11;12.70;;;8.18;;
54555;SDS011;57291;37.520;15.106;2022-10-16T03:17:38;11.90;;;8.35;;
54555;SDS011;57291;37.520;15.106;2022-10-16T03:20:05;14.25;;;8.85;;
54555;SDS011;57291;37.520;15.106;2022-10-16T03:22:32;13.82;;;8.82;;
54555;SDS011;57291;37.520;15.106;2022-10-16T03:24:59;15.82;;;9.43;;
54555;SDS011;57291;37.520;15.106;2022-10-16T03:27:27;15.00;;;8.77;;
54555;SDS011;57291;37.520;15.106;2022-10-16T03:29:55;16.13;;;8.70;;
54555;SDS011;57291;37.520;15.106;2022-10-16T03:32:22;14.32;;;8.60;;
54555;SDS011;57291;37.520;15.106;2022-10-16T03:34:51;13.90;;;9.77;;
54555;SDS011;57291;37.520;15.106;2022-10-16T03:37:20;16.58;;;8.93;;
54555;SDS011;57291;37.520;15.106;2022-10-16T03:39:47;13.82;;;8.52;;
54555;SDS011;57291;37.520;15.106;2022-10-16T03:42:14;12.18;;;7.63;;
54555;SDS011;57291;37.520;15.106;2022-10-16T03:44:41;14.63;;;8.80;;
54555;SDS011;57291;37.520;15.106;2022-10-16T03:47:08;20.55;;;9.15;;
54555;SDS011;57291;37.520;15.106;2022-10-16T03:49:35;15.95;;;9.50;;
54555;SDS011;57291;37.520;15.106;2022-10-16T03:52:02;14.93;;;9.05;;
54555;SDS011;57291;37.520;15.106;2022-10-16T03:54:29;17.98;;;10.00;;
54555;SDS011;57291;37.520;15.106;2022-10-16T03:56:56;14.20;;;9.35;;
54555;SDS011;57291;37.520;15.106;2022-10-16T03:59:23;13.50;;;9.00;;
54555;SDS011;57291;37.520;15.106;2022-10-16T04:01:50;17.17;;;9.27;;
54555;SDS011;57291;37.520;15.106;2022-10-16T04:04:17;14.85;;;9.10;;
54555;SDS011;57291;37.520;15.106;2022-10-16T04:06:44;15.15;;;9.15;;
54555;SDS011;57291;37.520;15.106;2022-10-16T04:09:11;16.63;;;9.10;;
54555;SDS011;57291;37.520;15.106;2022-10-16T04:11:38;13.68;;;9.40;;
54555;SDS011;57291;37.520;15.106;2022-10-16T04:14:05;18.00;;;9.82;;
54555;SDS011;57291;37.520;15.106;2022-10-16T04:16:32;16.75;;;10.40;;
54555;SDS011;57291;37.520;15.106;2022-10-16T04:18:59;14.85;;;8.80;;
54555;SDS011;57291;37.520;15.106;2022-10-16T04:21:26;18.27;;;10.50;;
54555;SDS011;57291;37.520;15.106;2022-10-16T04:23:53;16.15;;;10.55;;
54555;SDS011;57291;37.520;15.106;2022-10-16T04:26:21;17.98;;;10.13;;
54555;SDS011;57291;37.520;15.106;2022-10-16T04:28:48;16.08;;;10.25;;
54555;SDS011;57291;37.520;15.106;2022-10-16T04:31:15;16.65;;;9.68;;
54555;SDS011;57291;37.520;15.106;2022-10-16T04:33:43;13.27;;;9.15;;
54555;SDS011;57291;37.520;15.106;2022-10-16T04:36:10;15.38;;;9.23;;
54555;SDS011;57291;37.520;15.106;2022-10-16T04:38:37;17.05;;;9.93;;
54555;SDS011;57291;37.520;15.106;2022-10-16T04:41:06;14.90;;;9.93;;
54555;SDS011;57291;37.520;15.106;2022-10-16T04:43:34;15.70;;;10.10;;
54555;SDS011;57291;37.520;15.106;2022-10-16T04:46:01;15.95;;;10.25;;
54555;SDS011;57291;37.520;15.106;2022-10-16T04:48:31;21.25;;;11.43;;
54555;SDS011;57291;37.520;15.106;2022-10-16T04:50:59;16.88;;;10.30;;
54555;SDS011;57291;37.520;15.106;2022-10-16T04:53:26;18.17;;;10.13;;
54555;SDS011;57291;37.520;15.106;2022-10-16T04:55:53;15.57;;;9.98;;
54555;SDS011;57291;37.520;15.106;2022-10-16T04:58:20;15.25;;;10.07;;
54555;SDS011;57291;37.520;15.106;2022-10-16T05:00:47;16.55;;;11.23;;
54555;SDS011;57291;37.520;15.106;2022-10-16T05:03:14;16.13;;;10.32;;
54555;SDS011;57291;37.520;15.106;2022-10-16T05:05:42;18.17;;;12.45;;
54555;SDS011;57291;37.520;15.106;2022-10-16T05:08:14;20.15;;;11.80;;
54555;SDS011;57291;37.520;15.106;2022-10-16T05:10:43;16.05;;;10.27;;
54555;SDS011;57291;37.520;15.106;2022-10-16T05:13:11;16.15;;;10.65;;
54555;SDS011;57291;37.520;15.106;2022-10-16T05:15:38;15.75;;;10.23;;
54555;SDS011;57291;37.520;15.106;2022-10-16T05:18:05;16.95;;;10.20;;
54555;SDS011;57291;37.520;15.106;2022-10-16T05:20:32;16.00;;;10.48;;
54555;SDS011;57291;37.520;15.106;2022-10-16T05:22:59;21.35;;;9.52;;
54555;SDS011;57291;37.520;15.106;2022-10-16T05:25:26;14.98;;;9.77;;
54555;SDS011;57291;37.520;15.106;2022-10-16T05:27:53;15.77;;;10.15;;
54555;SDS011;57291;37.520;15.106;2022-10-16T05:30:20;15.90;;;9.57;;
54555;SDS011;57291;37.520;15.106;2022-10-16T05:32:48;15.70;;;10.35;;
54555;SDS011;57291;37.520;15.106;2022-10-16T05:35:17;17.08;;;10.43;;
54555;SDS011;57291;37.520;15.106;2022-10-16T05:37:45;13.95;;;9.23;;
54555;SDS011;57291;37.520;15.106;2022-10-16T05:40:13;12.82;;;8.88;;
54555;SDS011;57291;37.520;15.106;2022-10-16T05:42:40;13.10;;;9.43;;
54555;SDS011;57291;37.520;15.106;2022-10-16T05:45:09;15.05;;;9.80;;
54555;SDS011;57291;37.520;15.106;2022-10-16T05:47:38;13.57;;;9.80;;
54555;SDS011;57291;37.520;15.106;2022-10-16T05:50:06;15.48;;;9.75;;
54555;SDS011;57291;37.520;15.106;2022-10-16T05:52:33;15.43;;;8.75;;
54555;SDS011;57291;37.520;15.106;2022-10-16T05:55:00;13.15;;;8.52;;
54555;SDS011;57291;37.520;15.106;2022-10-16T05:57:27;12.38;;;8.73;;
54555;SDS011;57291;37.520;15.106;2022-10-16T05:59:54;17.23;;;10.63;;
54555;SDS011;57291;37.520;15.106;2022-10-16T06:02:21;15.63;;;10.68;;
54555;SDS011;57291;37.520;15.106;2022-10-16T06:04:48;19.60;;;10.15;;
54555;SDS011;57291;37.520;15.106;2022-10-16T06:07:15;14.35;;;9.70;;
54555;SDS011;57291;37.520;15.106;2022-10-16T06:09:42;12.68;;;9.18;;
54555;SDS011;57291;37.520;15.106;2022-10-16T06:12:09;16.15;;;8.35;;
54555;SDS011;57291;37.520;15.106;2022-10-16T06:14:36;10.73;;;7.50;;
54555;SDS011;57291;37.520;15.106;2022-10-16T06:17:04;12.43;;;7.53;;
54555;SDS011;57291;37.520;15.106;2022-10-16T06:19:31;11.70;;;7.28;;
54555;SDS011;57291;37.520;15.106;2022-10-16T06:21:58;12.65;;;7.45;;
54555;SDS011;57291;37.520;15.106;2022-10-16T06:24:25;9.57;;;6.45;;
54555;SDS011;57291;37.520;15.106;2022-10-16T06:26:52;10.80;;;7.03;;
54555;SDS011;57291;37.520;15.106;2022-10-16T06:29:19;10.75;;;6.53;;
54555;SDS011;57291;37.520;15.106;2022-10-16T06:31:46;11.35;;;7.30;;
54555;SDS011;57291;37.520;15.106;2022-10-16T06:34:13;9.50;;;6.03;;
54555;SDS011;57291;37.520;15.106;2022-10-16T06:36:41;12.07;;;6.53;;
54555;SDS011;57291;37.520;15.106;2022-10-16T06:39:10;18.08;;;9.20;;
54555;SDS011;57291;37.520;15.106;2022-10-16T06:41:37;18.75;;;9.50;;
54555;SDS011;57291;37.520;15.106;2022-10-16T06:44:26;20.42;;;10.13;;
54555;SDS011;57291;37.520;15.106;2022-10-16T06:46:53;18.25;;;9.95;;
54555;SDS011;57291;37.520;15.106;2022-10-16T06:49:20;19.67;;;10.63;;
54555;SDS011;57291;37.520;15.106;2022-10-16T06:51:49;20.08;;;10.38;;
54555;SDS011;57291;37.520;15.106;2022-10-16T06:54:15;25.23;;;10.52;;
54555;SDS011;57291;37.520;15.106;2022-10-16T06:56:44;17.60;;;10.15;;
54555;SDS011;57291;37.520;15.106;2022-10-16T06:59:11;20.13;;;11.15;;
54555;SDS011;57291;37.520;15.106;2022-10-16T07:01:38;22.38;;;11.48;;
54555;SDS011;57291;37.520;15.106;2022-10-16T07:04:05;21.90;;;11.82;;
54555;SDS011;57291;37.520;15.106;2022-10-16T07:06:32;20.50;;;11.35;;
54555;SDS011;57291;37.520;15.106;2022-10-16T07:09:01;20.77;;;11.57;;
54555;SDS011;57291;37.520;15.106;2022-10-16T07:11:31;18.48;;;11.00;;
54555;SDS011;57291;37.520;15.106;2022-10-16T07:13:58;18.98;;;10.07;;
54555;SDS011;57291;37.520;15.106;2022-10-16T07:16:27;16.85;;;10.55;;
54555;SDS011;57291;37.520;15.106;2022-10-16T07:18:56;15.73;;;10.02;;
54555;SDS011;57291;37.520;15.106;2022-10-16T07:21:28;17.40;;;8.88;;
54555;SDS011;57291;37.520;15.106;2022-10-16T07:23:58;21.27;;;10.25;;
54555;SDS011;57291;37.520;15.106;2022-10-16T07:26:31;19.85;;;10.38;;
54555;SDS011;57291;37.520;15.106;2022-10-16T07:29:00;18.10;;;10.27;;
54555;SDS011;57291;37.520;15.106;2022-10-16T07:31:27;16.73;;;10.02;;
54555;SDS011;57291;37.520;15.106;2022-10-16T07:33:54;18.92;;;10.50;;
54555;SDS011;57291;37.520;15.106;2022-10-16T07:36:21;16.80;;;10.95;;
54555;SDS011;57291;37.520;15.106;2022-10-16T07:38:49;19.67;;;10.38;;
54555;SDS011;57291;37.520;15.106;2022-10-16T07:41:20;18.15;;;10.18;;
54555;SDS011;57291;37.520;15.106;2022-10-16T07:43:51;20.65;;;10.70;;
54555;SDS011;57291;37.520;15.106;2022-10-16T07:46:20;14.23;;;9.18;;
54555;SDS011;57291;37.520;15.106;2022-10-16T07:48:48;13.95;;;9.05;;
54555;SDS011;57291;37.520;15.106;2022-10-16T07:51:17;17.40;;;9.85;;
54555;SDS011;57291;37.520;15.106;2022-10-16T07:53:46;21.13;;;11.38;;
54555;SDS011;57291;37.520;15.106;2022-10-16T07:56:13;18.98;;;9.32;;
54555;SDS011;57291;37.520;15.106;2022-10-16T07:58:41;18.65;;;8.85;;
54555;SDS011;57291;37.520;15.106;2022-10-16T08:01:10;20.02;;;9.30;;
54555;SDS011;57291;37.520;15.106;2022-10-16T08:03:48;12.45;;;8.30;;
54555;SDS011;57291;37.520;15.106;2022-10-16T08:06:17;16.55;;;9.38;;
54555;SDS011;57291;37.520;15.106;2022-10-16T08:08:51;17.25;;;7.85;;
54555;SDS011;57291;37.520;15.106;2022-10-16T08:11:18;14.57;;;7.47;;
54555;SDS011;57291;37.520;15.106;2022-10-16T08:13:45;13.07;;;8.05;;
54555;SDS011;57291;37.520;15.106;2022-10-16T08:16:12;12.18;;;7.22;;
54555;SDS011;57291;37.520;15.106;2022-10-16T08:18:40;12.77;;;7.60;;
54555;SDS011;57291;37.520;15.106;2022-10-16T08:21:12;11.50;;;7.40;;
54555;SDS011;57291;37.520;15.106;2022-10-16T08:23:46;11.48;;;7.10;;
54555;SDS011;57291;37.520;15.106;2022-10-16T08:26:22;13.05;;;7.75;;
54555;SDS011;57291;37.520;15.106;2022-10-16T08:28:50;13.55;;;7.28;;
54555;SDS011;57291;37.520;15.106;2022-10-16T08:31:18;12.77;;;7.72;;
54555;SDS011;57291;37.520;15.106;2022-10-16T08:33:46;18.75;;;8.38;;
54555;SDS011;57291;37.520;15.106;2022-10-16T08:36:15;11.00;;;8.05;;
54555;SDS011;57291;37.520;15.106;2022-10-16T08:38:43;13.07;;;7.40;;
54555;SDS011;57291;37.520;15.106;2022-10-16T08:49:24;15.55;;;8.40;;
54555;SDS011;57291;37.520;15.106;2022-10-16T08:51:51;13.07;;;8.40;;
54555;SDS011;57291;37.520;15.106;2022-10-16T08:54:32;14.73;;;9.65;;
54555;SDS011;57291;37.520;15.106;2022-10-16T08:57:17;19.58;;;9.13;;
54555;SDS011;57291;37.520;15.106;2022-10-16T08:59:50;15.57;;;8.38;;
54555;SDS011;57291;37.520;15.106;2022-10-16T09:05:38;17.83;;;9.57;;
54555;SDS011;57291;37.520;15.106;2022-10-16T09:11:49;13.63;;;8.68;;
54555;SDS011;57291;37.520;15.106;2022-10-16T09:14:20;17.57;;;8.60;;
54555;SDS011;57291;37.520;15.106;2022-10-16T09:22:37;16.45;;;7.97;;
54555;SDS011;57291;37.520;15.106;2022-10-16T09:25:14;19.40;;;8.48;;
54555;SDS011;57291;37.520;15.106;2022-10-16T09:27:45;13.25;;;6.97;;
54555;SDS011;57291;37.520;15.106;2022-10-16T09:30:18;12.95;;;7.57;;
54555;SDS011;57291;37.520;15.106;2022-10-16T09:32:48;15.45;;;8.38;;
54555;SDS011;57291;37.520;15.106;2022-10-16T09:35:20;13.83;;;8.93;;
54555;SDS011;57291;37.520;15.106;2022-10-16T09:37:54;14.45;;;8.60;;
54555;SDS011;57291;37.520;15.106;2022-10-16T09:40:25;19.80;;;9.05;;
54555;SDS011;57291;37.520;15.106;2022-10-16T09:48:47;12.55;;;8.95;;
54555;SDS011;57291;37.520;15.106;2022-10-16T09:51:18;12.68;;;8.18;;
54555;SDS011;57291;37.520;15.106;2022-10-16T09:53:48;15.93;;;9.15;;
54555;SDS011;57291;37.520;15.106;2022-10-16T09:56:25;16.70;;;8.63;;
54555;SDS011;57291;37.520;15.106;2022-10-16T09:58:57;13.52;;;8.63;;
54555;SDS011;57291;37.520;15.106;2022-10-16T10:01:35;16.70;;;8.40;;
54555;SDS011;57291;37.520;15.106;2022-10-16T10:04:12;16.83;;;9.18;;
54555;SDS011;57291;37.520;15.106;2022-10-16T10:09:25;16.30;;;9.68;;
54555;SDS011;57291;37.520;15.106;2022-10-16T10:12:00;17.40;;;9.02;;
54555;SDS011;57291;37.520;15.106;2022-10-16T10:14:31;17.65;;;9.60;;
54555;SDS011;57291;37.520;15.106;2022-10-16T10:25:18;13.10;;;8.35;;
54555;SDS011;57291;37.520;15.106;2022-10-16T10:33:27;13.68;;;8.50;;
54555;SDS011;57291;37.520;15.106;2022-10-16T10:38:51;15.20;;;8.60;;
54555;SDS011;57291;37.520;15.106;2022-10-16T10:50:02;15.05;;;9.00;;
54555;SDS011;57291;37.520;15.106;2022-10-16T11:07:21;14.88;;;7.57;;
54555;SDS011;57291;37.520;15.106;2022-10-16T11:10:02;11.98;;;7.75;;
54555;SDS011;57291;37.520;15.106;2022-10-16T11:12:38;16.50;;;8.27;;
54555;SDS011;57291;37.520;15.106;2022-10-16T11:18:08;14.38;;;8.27;;
54555;SDS011;57291;37.520;15.106;2022-10-16T11:20:42;14.32;;;7.88;;
54555;SDS011;57291;37.520;15.106;2022-10-16T11:23:28;11.98;;;7.10;;
54555;SDS011;57291;37.520;15.106;2022-10-16T11:26:18;15.05;;;8.45;;
54555;SDS011;57291;37.520;15.106;2022-10-16T11:28:50;12.75;;;7.60;;
54555;SDS011;57291;37.520;15.106;2022-10-16T11:31:29;19.52;;;8.18;;
54555;SDS011;57291;37.520;15.106;2022-10-16T11:34:25;15.30;;;8.60;;
54555;SDS011;57291;37.520;15.106;2022-10-16T11:37:06;13.43;;;8.63;;
54555;SDS011;57291;37.520;15.106;2022-10-16T11:39:38;10.25;;;7.28;;
54555;SDS011;57291;37.520;15.106;2022-10-16T11:42:19;16.60;;;7.85;;
54555;SDS011;57291;37.520;15.106;2022-10-16T11:50:28;12.15;;;7.38;;
54555;SDS011;57291;37.520;15.106;2022-10-16T11:53:24;14.82;;;8.23;;
54555;SDS011;57291;37.520;15.106;2022-10-16T11:56:00;16.15;;;7.70;;
54555;SDS011;57291;37.520;15.106;2022-10-16T11:58:35;12.73;;;7.85;;
54555;SDS011;57291;37.520;15.106;2022-10-16T12:04:11;13.35;;;7.63;;
54555;SDS011;57291;37.520;15.106;2022-10-16T12:07:07;15.55;;;7.65;;
54555;SDS011;57291;37.520;15.106;2022-10-16T12:09:39;16.48;;;8.15;;
54555;SDS011;57291;37.520;15.106;2022-10-16T12:15:02;11.07;;;7.10;;
54555;SDS011;57291;37.520;15.106;2022-10-16T12:18:07;13.07;;;6.78;;
54555;SDS011;57291;37.520;15.106;2022-10-16T12:20:53;13.65;;;6.65;;
54555;SDS011;57291;37.520;15.106;2022-10-16T12:23:25;11.05;;;6.72;;
54555;SDS011;57291;37.520;15.106;2022-10-16T12:25:57;10.63;;;6.35;;
54555;SDS011;57291;37.520;15.106;2022-10-16T12:28:26;10.20;;;6.72;;
54555;SDS011;57291;37.520;15.106;2022-10-16T12:31:06;12.77;;;6.32;;
54555;SDS011;57291;37.520;15.106;2022-10-16T12:33:43;11.65;;;5.75;;
54555;SDS011;57291;37.520;15.106;2022-10-16T12:36:39;11.80;;;6.00;;
54555;SDS011;57291;37.520;15.106;2022-10-16T12:39:06;8.00;;;5.43;;
54555;SDS011;57291;37.520;15.106;2022-10-16T12:42:00;11.57;;;6.40;;
54555;SDS011;57291;37.520;15.106;2022-10-16T12:44:36;14.82;;;6.57;;
54555;SDS011;57291;37.520;15.106;2022-10-16T12:49:31;12.52;;;6.85;;
54555;SDS011;57291;37.520;15.106;2022-10-16T12:52:03;9.80;;;6.25;;
54555;SDS011;57291;37.520;15.106;2022-10-16T12:54:35;11.90;;;7.35;;
54555;SDS011;57291;37.520;15.106;2022-10-16T13:00:12;9.35;;;6.72;;
54555;SDS011;57291;37.520;15.106;2022-10-16T13:02:53;13.68;;;6.97;;
54555;SDS011;57291;37.520;15.106;2022-10-16T13:20:00;9.13;;;5.97;;
54555;SDS011;57291;37.520;15.106;2022-10-16T13:22:41;11.05;;;6.50;;
54555;SDS011;57291;37.520;15.106;2022-10-16T13:25:39;11.80;;;6.80;;
54555;SDS011;57291;37.520;15.106;2022-10-16T13:28:10;11.27;;;6.60;;
54555;SDS011;57291;37.520;15.106;2022-10-16T13:30:43;12.90;;;7.25;;
54555;SDS011;57291;37.520;15.106;2022-10-16T13:33:24;10.65;;;6.60;;
54555;SDS011;57291;37.520;15.106;2022-10-16T13:35:55;11.57;;;6.57;;
54555;SDS011;57291;37.520;15.106;2022-10-16T13:38:27;11.00;;;7.28;;
54555;SDS011;57291;37.520;15.106;2022-10-16T13:43:34;12.02;;;7.43;;
54555;SDS011;57291;37.520;15.106;2022-10-16T13:46:28;13.13;;;7.47;;
54555;SDS011;57291;37.520;15.106;2022-10-16T13:49:01;11.57;;;7.25;;
54555;SDS011;57291;37.520;15.106;2022-10-16T13:51:31;10.75;;;7.30;;
54555;SDS011;57291;37.520;15.106;2022-10-16T13:53:59;11.57;;;7.28;;
54555;SDS011;57291;37.520;15.106;2022-10-16T13:56:27;10.60;;;6.90;;
54555;SDS011;57291;37.520;15.106;2022-10-16T13:59:02;12.20;;;7.22;;
54555;SDS011;57291;37.520;15.106;2022-10-16T14:01:44;12.38;;;7.20;;
54555;SDS011;57291;37.520;15.106;2022-10-16T14:04:11;11.27;;;7.65;;
54555;SDS011;57291;37.520;15.106;2022-10-16T14:06:41;12.95;;;6.95;;
54555;SDS011;57291;37.520;15.106;2022-10-16T14:12:00;13.32;;;7.57;;
54555;SDS011;57291;37.520;15.106;2022-10-16T14:14:30;12.35;;;7.57;;
54555;SDS011;57291;37.520;15.106;2022-10-16T14:17:13;10.55;;;6.88;;
54555;SDS011;57291;37.520;15.106;2022-10-16T14:19:55;13.60;;;7.85;;
54555;SDS011;57291;37.520;15.106;2022-10-16T14:22:33;11.68;;;7.03;;
54555;SDS011;57291;37.520;15.106;2022-10-16T14:25:01;13.05;;;7.60;;
54555;SDS011;57291;37.520;15.106;2022-10-16T14:30:58;9.98;;;6.95;;
54555;SDS011;57291;37.520;15.106;2022-10-16T14:38:41;10.70;;;6.82;;
54555;SDS011;57291;37.520;15.106;2022-10-16T14:41:14;13.73;;;8.25;;
54555;SDS011;57291;37.520;15.106;2022-10-16T14:43:42;10.98;;;7.05;;
54555;SDS011;57291;37.520;15.106;2022-10-16T14:46:17;13.18;;;7.07;;
54555;SDS011;57291;37.520;15.106;2022-10-16T14:48:53;13.40;;;7.88;;
54555;SDS011;57291;37.520;15.106;2022-10-16T14:51:27;10.65;;;6.88;;
54555;SDS011;57291;37.520;15.106;2022-10-16T14:53:54;11.55;;;6.88;;
54555;SDS011;57291;37.520;15.106;2022-10-16T14:56:27;12.10;;;6.85;;
54555;SDS011;57291;37.520;15.106;2022-10-16T14:58:58;12.63;;;7.30;;
54555;SDS011;57291;37.520;15.106;2022-10-16T15:01:27;12.52;;;7.05;;
54555;SDS011;57291;37.520;15.106;2022-10-16T15:03:54;13.30;;;6.85;;
54555;SDS011;57291;37.520;15.106;2022-10-16T15:06:21;13.07;;;7.13;;
54555;SDS011;57291;37.520;15.106;2022-10-16T15:08:48;12.73;;;7.05;;
54555;SDS011;57291;37.520;15.106;2022-10-16T15:11:16;11.40;;;6.85;;
54555;SDS011;57291;37.520;15.106;2022-10-16T15:13:46;15.27;;;7.93;;
54555;SDS011;57291;37.520;15.106;2022-10-16T15:16:14;13.20;;;7.55;;
54555;SDS011;57291;37.520;15.106;2022-10-16T15:18:42;8.98;;;6.93;;
54555;SDS011;57291;37.520;15.106;2022-10-16T15:24:08;12.93;;;7.82;;
54555;SDS011;57291;37.520;15.106;2022-10-16T15:26:44;13.23;;;7.20;;
54555;SDS011;57291;37.520;15.106;2022-10-16T15:29:12;11.82;;;7.45;;
54555;SDS011;57291;37.520;15.106;2022-10-16T15:31:39;16.00;;;9.02;;
54555;SDS011;57291;37.520;15.106;2022-10-16T15:34:09;11.10;;;7.85;;
54555;SDS011;57291;37.520;15.106;2022-10-16T15:36:37;11.30;;;7.32;;
54555;SDS011;57291;37.520;15.106;2022-10-16T15:39:15;11.23;;;7.82;;
54555;SDS011;57291;37.520;15.106;2022-10-16T15:41:44;15.15;;;8.43;;
54555;SDS011;57291;37.520;15.106;2022-10-16T15:44:17;13.35;;;8.77;;
54555;SDS011;57291;37.520;15.106;2022-10-16T15:46:45;13.48;;;8.05;;
54555;SDS011;57291;37.520;15.106;2022-10-16T15:49:12;14.30;;;8.70;;
54555;SDS011;57291;37.520;15.106;2022-10-16T15:51:40;15.23;;;8.75;;
54555;SDS011;57291;37.520;15.106;2022-10-16T15:54:08;12.07;;;8.40;;
54555;SDS011;57291;37.520;15.106;2022-10-16T15:56:35;16.38;;;8.63;;
54555;SDS011;57291;37.520;15.106;2022-10-16T15:59:04;16.10;;;8.52;;
54555;SDS011;57291;37.520;15.106;2022-10-16T16:01:32;13.77;;;8.35;;
54555;SDS011;57291;37.520;15.106;2022-10-16T16:04:01;13.07;;;8.60;;
54555;SDS011;57291;37.520;15.106;2022-10-16T16:06:41;13.00;;;8.95;;
54555;SDS011;57291;37.520;15.106;2022-10-16T16:09:11;17.92;;;9.35;;
54555;SDS011;57291;37.520;15.106;2022-10-16T16:11:40;15.52;;;9.63;;
54555;SDS011;57291;37.520;15.106;2022-10-16T16:14:07;14.93;;;9.43;;
54555;SDS011;57291;37.520;15.106;2022-10-16T16:16:39;15.68;;;9.57;;
54555;SDS011;57291;37.520;15.106;2022-10-16T16:19:06;14.98;;;9.35;;
54555;SDS011;57291;37.520;15.106;2022-10-16T16:21:37;18.40;;;9.43;;
54555;SDS011;57291;37.520;15.106;2022-10-16T16:24:04;17.05;;;9.55;;
54555;SDS011;57291;37.520;15.106;2022-10-16T16:26:35;19.23;;;10.25;;
54555;SDS011;57291;37.520;15.106;2022-10-16T16:29:15;15.38;;;9.98;;
54555;SDS011;57291;37.520;15.106;2022-10-16T16:34:10;15.68;;;9.98;;
54555;SDS011;57291;37.520;15.106;2022-10-16T16:36:37;15.52;;;10.98;;
54555;SDS011;57291;37.520;15.106;2022-10-16T16:39:06;16.13;;;11.25;;
54555;SDS011;57291;37.520;15.106;2022-10-16T16:41:34;16.25;;;10.98;;
54555;SDS011;57291;37.520;15.106;2022-10-16T16:44:05;17.08;;;11.18;;
54555;SDS011;57291;37.520;15.106;2022-10-16T16:46:34;17.20;;;12.10;;
54555;SDS011;57291;37.520;15.106;2022-10-16T16:49:01;17.00;;;11.85;;
54555;SDS011;57291;37.520;15.106;2022-10-16T16:51:29;20.13;;;13.70;;
54555;SDS011;57291;37.520;15.106;2022-10-16T16:53:56;21.60;;;13.70;;
54555;SDS011;57291;37.520;15.106;2022-10-16T16:56:23;25.90;;;15.02;;
54555;SDS011;57291;37.520;15.106;2022-10-16T16:58:52;27.27;;;14.18;;
54555;SDS011;57291;37.520;15.106;2022-10-16T17:01:21;23.75;;;14.77;;